sensor_id;sensor_type;location;lat;lon;timestamp;temperature;humidity
74488;DHT22;63019;51.080;13.642;2022-11-02T00:00:13;9.90;97.10
74488;DHT22;63019;51.080;13.642;2022-11-02T00:01:36;9.90;97.10
74488;DHT22;63019;51.080;13.642;2022-11-02T00:02:39;9.90;97.10
74488;DHT22;63019;51.080;13.642;2022-11-02T00:03:41;9.80;97.00
74488;DHT22;63019;51.080;13.642;2022-11-02T00:04:42;9.80;97.00
74488;DHT22;63019;51.080;13.642;2022-11-02T00:05:44;9.80;96.80
74488;DHT22;63019;51.080;13.642;2022-11-02T00:06:46;9.70;97.00
74488;DHT22;63019;51.080;13.642;2022-11-02T00:07:47;9.80;96.90
74488;DHT22;63019;51.080;13.642;2022-11-02T00:08:49;9.80;96.90
74488;DHT22;63019;51.080;13.642;2022-11-02T00:09:51;9.70;96.80
74488;DHT22;63019;51.080;13.642;2022-11-02T00:10:53;9.70;96.70
74488;DHT22;63019;51.080;13.642;2022-11-02T00:11:54;9.70;96.60
74488;DHT22;63019;51.080;13.642;2022-11-02T00:12:56;9.70;96.70
74488;DHT22;63019;51.080;13.642;2022-11-02T00:13:58;9.60;96.90
74488;DHT22;63019;51.080;13.642;2022-11-02T00:15:00;9.60;97.30
74488;DHT22;63019;51.080;13.642;2022-11-02T00:16:07;9.50;97.20
74488;DHT22;63019;51.080;13.642;2022-11-02T00:17:10;9.50;97.40
74488;DHT22;63019;51.080;13.642;2022-11-02T00:18:12;9.40;97.30
74488;DHT22;63019;51.080;13.642;2022-11-02T00:19:15;9.40;97.70
74488;DHT22;63019;51.080;13.642;2022-11-02T00:20:18;9.30;97.70
74488;DHT22;63019;51.080;13.642;2022-11-02T00:21:21;9.30;97.80
74488;DHT22;63019;51.080;13.642;2022-11-02T00:22:24;9.30;97.80
74488;DHT22;63019;51.080;13.642;2022-11-02T00:23:27;9.30;98.00
74488;DHT22;63019;51.080;13.642;2022-11-02T00:24:30;9.30;97.90
74488;DHT22;63019;51.080;13.642;2022-11-02T00:25:33;9.30;98.10
74488;DHT22;63019;51.080;13.642;2022-11-02T00:26:35;9.30;98.20
74488;DHT22;63019;51.080;13.642;2022-11-02T00:27:37;9.20;98.20
74488;DHT22;63019;51.080;13.642;2022-11-02T00:28:40;9.20;98.10
74488;DHT22;63019;51.080;13.642;2022-11-02T00:29:42;9.20;98.30
74488;DHT22;63019;51.080;13.642;2022-11-02T00:30:43;9.20;98.40
74488;DHT22;63019;51.080;13.642;2022-11-02T00:31:45;9.10;98.60
74488;DHT22;63019;51.080;13.642;2022-11-02T00:32:47;9.10;98.60
74488;DHT22;63019;51.080;13.642;2022-11-02T00:33:49;9.10;98.50
74488;DHT22;63019;51.080;13.642;2022-11-02T00:34:51;9.10;98.50
74488;DHT22;63019;51.080;13.642;2022-11-02T00:35:54;9.10;98.60
74488;DHT22;63019;51.080;13.642;2022-11-02T00:36:56;9.10;98.50
74488;DHT22;63019;51.080;13.642;2022-11-02T00:37:57;9.10;98.50
74488;DHT22;63019;51.080;13.642;2022-11-02T00:38:59;9.10;98.60
74488;DHT22;63019;51.080;13.642;2022-11-02T00:40:01;9.10;98.70
74488;DHT22;63019;51.080;13.642;2022-11-02T00:41:03;9.00;98.60
74488;DHT22;63019;51.080;13.642;2022-11-02T00:42:05;9.00;98.50
74488;DHT22;63019;51.080;13.642;2022-11-02T00:43:06;9.00;98.70
74488;DHT22;63019;51.080;13.642;2022-11-02T00:44:08;9.00;98.60
74488;DHT22;63019;51.080;13.642;2022-11-02T00:45:10;9.00;98.70
74488;DHT22;63019;51.080;13.642;2022-11-02T00:46:12;9.00;98.80
74488;DHT22;63019;51.080;13.642;2022-11-02T00:47:14;9.00;98.80
74488;DHT22;63019;51.080;13.642;2022-11-02T00:48:15;8.90;98.90
74488;DHT22;63019;51.080;13.642;2022-11-02T00:49:17;8.90;98.80
74488;DHT22;63019;51.080;13.642;2022-11-02T00:50:19;8.90;98.90
74488;DHT22;63019;51.080;13.642;2022-11-02T00:51:20;8.90;98.90
74488;DHT22;63019;51.080;13.642;2022-11-02T00:52:22;8.90;98.90
74488;DHT22;63019;51.080;13.642;2022-11-02T00:53:23;8.90;99.00
74488;DHT22;63019;51.080;13.642;2022-11-02T00:54:25;8.90;98.90
74488;DHT22;63019;51.080;13.642;2022-11-02T00:55:29;8.90;98.90
74488;DHT22;63019;51.080;13.642;2022-11-02T00:56:31;9.00;98.90
74488;DHT22;63019;51.080;13.642;2022-11-02T00:57:32;9.00;98.80
74488;DHT22;63019;51.080;13.642;2022-11-02T00:58:34;9.00;98.80
74488;DHT22;63019;51.080;13.642;2022-11-02T00:59:36;9.00;98.70
74488;DHT22;63019;51.080;13.642;2022-11-02T01:00:37;9.00;98.60
74488;DHT22;63019;51.080;13.642;2022-11-02T01:01:39;9.00;98.90
74488;DHT22;63019;51.080;13.642;2022-11-02T01:02:42;9.10;98.60
74488;DHT22;63019;51.080;13.642;2022-11-02T01:03:44;9.00;98.50
74488;DHT22;63019;51.080;13.642;2022-11-02T01:04:45;9.00;98.40
74488;DHT22;63019;51.080;13.642;2022-11-02T01:05:47;9.10;98.60
74488;DHT22;63019;51.080;13.642;2022-11-02T01:06:49;9.10;98.60
74488;DHT22;63019;51.080;13.642;2022-11-02T01:07:51;9.10;98.50
74488;DHT22;63019;51.080;13.642;2022-11-02T01:08:53;9.10;98.50
74488;DHT22;63019;51.080;13.642;2022-11-02T01:09:54;9.10;98.60
74488;DHT22;63019;51.080;13.642;2022-11-02T01:11:08;9.10;98.70
74488;DHT22;63019;51.080;13.642;2022-11-02T01:12:10;9.10;98.80
74488;DHT22;63019;51.080;13.642;2022-11-02T01:13:12;9.10;98.80
74488;DHT22;63019;51.080;13.642;2022-11-02T01:14:13;9.10;98.70
74488;DHT22;63019;51.080;13.642;2022-11-02T01:15:15;9.10;99.00
74488;DHT22;63019;51.080;13.642;2022-11-02T01:16:17;9.10;98.60
74488;DHT22;63019;51.080;13.642;2022-11-02T01:17:19;9.10;98.80
74488;DHT22;63019;51.080;13.642;2022-11-02T01:18:20;9.10;98.90
74488;DHT22;63019;51.080;13.642;2022-11-02T01:19:23;9.10;98.90
74488;DHT22;63019;51.080;13.642;2022-11-02T01:20:25;9.00;98.80
74488;DHT22;63019;51.080;13.642;2022-11-02T01:21:27;9.10;99.00
74488;DHT22;63019;51.080;13.642;2022-11-02T01:22:29;9.00;98.90
74488;DHT22;63019;51.080;13.642;2022-11-02T01:23:32;9.00;98.80
74488;DHT22;63019;51.080;13.642;2022-11-02T01:24:34;9.00;98.80
74488;DHT22;63019;51.080;13.642;2022-11-02T01:25:36;9.00;98.60
74488;DHT22;63019;51.080;13.642;2022-11-02T01:26:37;9.00;98.70
74488;DHT22;63019;51.080;13.642;2022-11-02T01:27:39;9.00;98.70
74488;DHT22;63019;51.080;13.642;2022-11-02T01:28:41;9.00;98.70
74488;DHT22;63019;51.080;13.642;2022-11-02T01:29:43;9.00;98.80
74488;DHT22;63019;51.080;13.642;2022-11-02T01:30:46;9.00;98.70
74488;DHT22;63019;51.080;13.642;2022-11-02T01:31:48;9.00;98.70
74488;DHT22;63019;51.080;13.642;2022-11-02T01:32:50;9.00;98.70
74488;DHT22;63019;51.080;13.642;2022-11-02T01:33:52;9.00;98.50
74488;DHT22;63019;51.080;13.642;2022-11-02T01:34:54;9.00;98.50
74488;DHT22;63019;51.080;13.642;2022-11-02T01:35:56;9.00;98.50
74488;DHT22;63019;51.080;13.642;2022-11-02T01:36:57;9.00;98.40
74488;DHT22;63019;51.080;13.642;2022-11-02T01:37:59;9.00;98.40
74488;DHT22;63019;51.080;13.642;2022-11-02T01:39:01;8.90;98.40
74488;DHT22;63019;51.080;13.642;2022-11-02T01:40:03;8.90;98.40
74488;DHT22;63019;51.080;13.642;2022-11-02T01:41:06;8.90;98.40
74488;DHT22;63019;51.080;13.642;2022-11-02T01:42:18;8.90;98.40
74488;DHT22;63019;51.080;13.642;2022-11-02T01:43:26;8.80;98.50
74488;DHT22;63019;51.080;13.642;2022-11-02T01:44:29;8.80;98.70
74488;DHT22;63019;51.080;13.642;2022-11-02T01:45:31;8.80;98.60
74488;DHT22;63019;51.080;13.642;2022-11-02T01:46:40;8.80;98.70
74488;DHT22;63019;51.080;13.642;2022-11-02T01:47:46;8.80;98.60
74488;DHT22;63019;51.080;13.642;2022-11-02T01:49:00;8.80;98.60
74488;DHT22;63019;51.080;13.642;2022-11-02T01:50:12;8.80;98.50
74488;DHT22;63019;51.080;13.642;2022-11-02T01:52:34;8.80;98.60
74488;DHT22;63019;51.080;13.642;2022-11-02T01:53:40;8.70;98.50
74488;DHT22;63019;51.080;13.642;2022-11-02T01:55:11;8.80;98.50
74488;DHT22;63019;51.080;13.642;2022-11-02T01:56:16;8.80;98.50
74488;DHT22;63019;51.080;13.642;2022-11-02T01:57:20;8.80;98.40
74488;DHT22;63019;51.080;13.642;2022-11-02T01:58:22;8.80;98.40
74488;DHT22;63019;51.080;13.642;2022-11-02T01:59:29;8.80;98.40
74488;DHT22;63019;51.080;13.642;2022-11-02T02:00:32;8.80;98.50
74488;DHT22;63019;51.080;13.642;2022-11-02T02:01:34;8.80;98.40
74488;DHT22;63019;51.080;13.642;2022-11-02T02:02:50;8.90;98.30
74488;DHT22;63019;51.080;13.642;2022-11-02T02:03:53;8.90;98.30
74488;DHT22;63019;51.080;13.642;2022-11-02T02:05:05;8.90;98.10
74488;DHT22;63019;51.080;13.642;2022-11-02T02:06:11;8.90;98.20
74488;DHT22;63019;51.080;13.642;2022-11-02T02:07:14;8.90;98.10
74488;DHT22;63019;51.080;13.642;2022-11-02T02:08:18;8.90;98.10
74488;DHT22;63019;51.080;13.642;2022-11-02T02:09:20;8.90;98.00
74488;DHT22;63019;51.080;13.642;2022-11-02T02:10:23;8.90;97.90
74488;DHT22;63019;51.080;13.642;2022-11-02T02:11:33;8.90;97.80
74488;DHT22;63019;51.080;13.642;2022-11-02T02:12:38;8.90;97.80
74488;DHT22;63019;51.080;13.642;2022-11-02T02:13:40;8.90;97.80
74488;DHT22;63019;51.080;13.642;2022-11-02T02:14:42;8.80;97.90
74488;DHT22;63019;51.080;13.642;2022-11-02T02:18:37;8.80;98.30
74488;DHT22;63019;51.080;13.642;2022-11-02T02:19:53;8.70;98.40
74488;DHT22;63019;51.080;13.642;2022-11-02T02:21:04;8.80;98.50
74488;DHT22;63019;51.080;13.642;2022-11-02T02:24:04;8.80;98.30
74488;DHT22;63019;51.080;13.642;2022-11-02T02:28:58;8.70;98.40
74488;DHT22;63019;51.080;13.642;2022-11-02T02:30:03;8.80;98.30
74488;DHT22;63019;51.080;13.642;2022-11-02T02:32:21;8.80;98.10
74488;DHT22;63019;51.080;13.642;2022-11-02T02:34:08;8.80;98.10
74488;DHT22;63019;51.080;13.642;2022-11-02T02:34:57;8.80;98.10
74488;DHT22;63019;51.080;13.642;2022-11-02T02:36:06;8.80;98.10
74488;DHT22;63019;51.080;13.642;2022-11-02T02:38:39;8.70;98.00
74488;DHT22;63019;51.080;13.642;2022-11-02T02:39:59;8.70;97.90
74488;DHT22;63019;51.080;13.642;2022-11-02T02:42:21;8.60;97.80
74488;DHT22;63019;51.080;13.642;2022-11-02T02:43:31;8.60;97.90
74488;DHT22;63019;51.080;13.642;2022-11-02T02:44:35;8.60;97.90
74488;DHT22;63019;51.080;13.642;2022-11-02T02:48:06;8.50;97.60
74488;DHT22;63019;51.080;13.642;2022-11-02T02:49:20;8.50;97.80
74488;DHT22;63019;51.080;13.642;2022-11-02T02:50:29;8.50;97.70
74488;DHT22;63019;51.080;13.642;2022-11-02T02:51:33;8.50;97.80
74488;DHT22;63019;51.080;13.642;2022-11-02T02:52:36;8.50;97.80
74488;DHT22;63019;51.080;13.642;2022-11-02T02:54:03;8.50;97.80
74488;DHT22;63019;51.080;13.642;2022-11-02T02:55:06;8.50;97.90
74488;DHT22;63019;51.080;13.642;2022-11-02T02:56:09;8.50;97.70
74488;DHT22;63019;51.080;13.642;2022-11-02T02:57:20;8.50;97.90
74488;DHT22;63019;51.080;13.642;2022-11-02T02:58:26;8.40;97.80
74488;DHT22;63019;51.080;13.642;2022-11-02T02:59:33;8.40;97.80
74488;DHT22;63019;51.080;13.642;2022-11-02T03:00:37;8.40;97.60
74488;DHT22;63019;51.080;13.642;2022-11-02T03:01:41;8.40;97.80
74488;DHT22;63019;51.080;13.642;2022-11-02T03:02:45;8.40;97.60
74488;DHT22;63019;51.080;13.642;2022-11-02T03:04:03;8.40;97.70
74488;DHT22;63019;51.080;13.642;2022-11-02T03:05:31;8.40;97.60
74488;DHT22;63019;51.080;13.642;2022-11-02T03:06:35;8.40;97.70
74488;DHT22;63019;51.080;13.642;2022-11-02T03:07:37;8.40;97.70
74488;DHT22;63019;51.080;13.642;2022-11-02T03:08:43;8.30;97.90
74488;DHT22;63019;51.080;13.642;2022-11-02T03:10:35;8.30;97.70
74488;DHT22;63019;51.080;13.642;2022-11-02T03:11:18;8.30;97.60
74488;DHT22;63019;51.080;13.642;2022-11-02T03:14:02;8.40;97.70
74488;DHT22;63019;51.080;13.642;2022-11-02T03:18:54;8.30;97.60
74488;DHT22;63019;51.080;13.642;2022-11-02T03:21:27;8.20;97.50
74488;DHT22;63019;51.080;13.642;2022-11-02T03:22:47;8.20;97.40
74488;DHT22;63019;51.080;13.642;2022-11-02T03:23:51;8.20;97.40
74488;DHT22;63019;51.080;13.642;2022-11-02T03:25:01;8.30;97.50
74488;DHT22;63019;51.080;13.642;2022-11-02T03:27:38;8.30;97.30
74488;DHT22;63019;51.080;13.642;2022-11-02T03:30:14;8.30;97.20
74488;DHT22;63019;51.080;13.642;2022-11-02T03:32:56;8.20;97.30
74488;DHT22;63019;51.080;13.642;2022-11-02T03:35:30;8.00;97.30
74488;DHT22;63019;51.080;13.642;2022-11-02T03:36:42;8.10;97.30
74488;DHT22;63019;51.080;13.642;2022-11-02T03:38:11;8.10;97.40
74488;DHT22;63019;51.080;13.642;2022-11-02T03:39:17;8.10;97.30
74488;DHT22;63019;51.080;13.642;2022-11-02T03:40:28;8.10;97.40
74488;DHT22;63019;51.080;13.642;2022-11-02T03:41:33;8.10;97.30
74488;DHT22;63019;51.080;13.642;2022-11-02T03:42:36;8.10;97.20
74488;DHT22;63019;51.080;13.642;2022-11-02T03:43:39;8.20;97.10
74488;DHT22;63019;51.080;13.642;2022-11-02T03:44:42;8.30;97.00
74488;DHT22;63019;51.080;13.642;2022-11-02T03:45:48;8.40;96.90
74488;DHT22;63019;51.080;13.642;2022-11-02T03:46:54;8.50;96.60
74488;DHT22;63019;51.080;13.642;2022-11-02T03:48:01;8.70;96.40
74488;DHT22;63019;51.080;13.642;2022-11-02T03:49:06;8.80;96.10
74488;DHT22;63019;51.080;13.642;2022-11-02T03:50:11;9.00;95.90
74488;DHT22;63019;51.080;13.642;2022-11-02T03:51:18;9.10;95.60
74488;DHT22;63019;51.080;13.642;2022-11-02T03:52:22;9.30;95.40
74488;DHT22;63019;51.080;13.642;2022-11-02T03:56:10;9.60;94.70
74488;DHT22;63019;51.080;13.642;2022-11-02T03:57:18;9.70;94.50
74488;DHT22;63019;51.080;13.642;2022-11-02T03:58:22;9.70;94.20
74488;DHT22;63019;51.080;13.642;2022-11-02T03:59:24;9.80;94.00
74488;DHT22;63019;51.080;13.642;2022-11-02T04:00:29;9.80;94.20
74488;DHT22;63019;51.080;13.642;2022-11-02T04:01:41;9.80;94.10
74488;DHT22;63019;51.080;13.642;2022-11-02T04:02:46;9.80;94.20
74488;DHT22;63019;51.080;13.642;2022-11-02T04:03:49;9.80;93.70
74488;DHT22;63019;51.080;13.642;2022-11-02T04:04:51;9.90;93.50
74488;DHT22;63019;51.080;13.642;2022-11-02T04:05:53;9.90;93.60
74488;DHT22;63019;51.080;13.642;2022-11-02T04:06:55;10.00;92.80
74488;DHT22;63019;51.080;13.642;2022-11-02T04:07:57;10.00;92.90
74488;DHT22;63019;51.080;13.642;2022-11-02T04:09:18;10.10;92.90
74488;DHT22;63019;51.080;13.642;2022-11-02T04:10:20;10.10;92.70
74488;DHT22;63019;51.080;13.642;2022-11-02T04:11:22;10.10;92.60
74488;DHT22;63019;51.080;13.642;2022-11-02T04:12:43;10.20;92.70
74488;DHT22;63019;51.080;13.642;2022-11-02T04:14:04;10.20;92.40
74488;DHT22;63019;51.080;13.642;2022-11-02T04:15:25;10.20;92.50
74488;DHT22;63019;51.080;13.642;2022-11-02T04:16:26;10.20;92.50
74488;DHT22;63019;51.080;13.642;2022-11-02T04:17:28;10.20;92.50
74488;DHT22;63019;51.080;13.642;2022-11-02T04:18:49;10.10;92.80
74488;DHT22;63019;51.080;13.642;2022-11-02T04:20:10;10.00;92.90
74488;DHT22;63019;51.080;13.642;2022-11-02T04:21:12;9.90;93.30
74488;DHT22;63019;51.080;13.642;2022-11-02T04:22:14;9.90;93.60
74488;DHT22;63019;51.080;13.642;2022-11-02T04:23:34;9.80;93.70
74488;DHT22;63019;51.080;13.642;2022-11-02T04:24:54;9.70;93.80
74488;DHT22;63019;51.080;13.642;2022-11-02T04:26:15;9.60;93.80
74488;DHT22;63019;51.080;13.642;2022-11-02T04:27:17;9.60;93.90
74488;DHT22;63019;51.080;13.642;2022-11-02T04:28:21;9.50;93.80
74488;DHT22;63019;51.080;13.642;2022-11-02T04:29:23;9.50;93.80
74488;DHT22;63019;51.080;13.642;2022-11-02T04:30:25;9.40;93.90
74488;DHT22;63019;51.080;13.642;2022-11-02T04:31:26;9.40;94.10
74488;DHT22;63019;51.080;13.642;2022-11-02T04:32:28;9.30;94.10
74488;DHT22;63019;51.080;13.642;2022-11-02T04:33:48;9.30;94.00
74488;DHT22;63019;51.080;13.642;2022-11-02T04:34:50;9.30;94.10
74488;DHT22;63019;51.080;13.642;2022-11-02T04:35:52;9.30;94.10
74488;DHT22;63019;51.080;13.642;2022-11-02T04:36:53;9.30;94.10
74488;DHT22;63019;51.080;13.642;2022-11-02T04:37:55;9.20;94.00
74488;DHT22;63019;51.080;13.642;2022-11-02T04:39:16;9.20;94.00
74488;DHT22;63019;51.080;13.642;2022-11-02T04:40:18;9.20;94.00
74488;DHT22;63019;51.080;13.642;2022-11-02T04:41:20;9.10;94.00
74488;DHT22;63019;51.080;13.642;2022-11-02T04:42:45;9.10;94.10
74488;DHT22;63019;51.080;13.642;2022-11-02T04:43:47;9.10;94.10
74488;DHT22;63019;51.080;13.642;2022-11-02T04:44:49;9.10;94.10
74488;DHT22;63019;51.080;13.642;2022-11-02T04:45:50;9.10;94.10
74488;DHT22;63019;51.080;13.642;2022-11-02T04:46:52;9.10;94.00
74488;DHT22;63019;51.080;13.642;2022-11-02T04:47:59;9.10;94.10
74488;DHT22;63019;51.080;13.642;2022-11-02T04:49:02;9.10;94.30
74488;DHT22;63019;51.080;13.642;2022-11-02T04:50:04;9.10;94.10
74488;DHT22;63019;51.080;13.642;2022-11-02T04:51:05;9.10;94.10
74488;DHT22;63019;51.080;13.642;2022-11-02T04:52:07;9.10;94.00
74488;DHT22;63019;51.080;13.642;2022-11-02T04:53:10;9.10;94.00
74488;DHT22;63019;51.080;13.642;2022-11-02T04:54:12;9.00;94.10
74488;DHT22;63019;51.080;13.642;2022-11-02T04:55:13;9.00;94.10
74488;DHT22;63019;51.080;13.642;2022-11-02T04:56:15;9.00;94.30
74488;DHT22;63019;51.080;13.642;2022-11-02T04:57:17;9.00;94.00
74488;DHT22;63019;51.080;13.642;2022-11-02T04:58:19;9.00;94.10
74488;DHT22;63019;51.080;13.642;2022-11-02T04:59:20;9.00;94.00
74488;DHT22;63019;51.080;13.642;2022-11-02T05:00:22;9.00;94.10
74488;DHT22;63019;51.080;13.642;2022-11-02T05:01:26;9.00;94.10
74488;DHT22;63019;51.080;13.642;2022-11-02T05:02:28;9.00;94.20
74488;DHT22;63019;51.080;13.642;2022-11-02T05:03:30;8.90;94.20
74488;DHT22;63019;51.080;13.642;2022-11-02T05:04:31;8.90;94.30
74488;DHT22;63019;51.080;13.642;2022-11-02T05:05:33;8.80;94.30
74488;DHT22;63019;51.080;13.642;2022-11-02T05:06:35;8.70;94.30
74488;DHT22;63019;51.080;13.642;2022-11-02T05:07:37;8.70;94.60
74488;DHT22;63019;51.080;13.642;2022-11-02T05:08:38;8.60;94.70
74488;DHT22;63019;51.080;13.642;2022-11-02T05:09:40;8.60;94.80
74488;DHT22;63019;51.080;13.642;2022-11-02T05:10:44;8.50;94.80
74488;DHT22;63019;51.080;13.642;2022-11-02T05:11:46;8.50;94.70
74488;DHT22;63019;51.080;13.642;2022-11-02T05:12:48;8.50;94.60
74488;DHT22;63019;51.080;13.642;2022-11-02T05:13:56;8.40;94.70
74488;DHT22;63019;51.080;13.642;2022-11-02T05:14:58;8.40;94.80
74488;DHT22;63019;51.080;13.642;2022-11-02T05:15:59;8.30;95.10
74488;DHT22;63019;51.080;13.642;2022-11-02T05:17:01;8.10;95.20
74488;DHT22;63019;51.080;13.642;2022-11-02T05:18:03;7.90;95.40
74488;DHT22;63019;51.080;13.642;2022-11-02T05:19:05;7.90;95.60
74488;DHT22;63019;51.080;13.642;2022-11-02T05:20:11;7.80;95.70
74488;DHT22;63019;51.080;13.642;2022-11-02T05:21:13;7.80;95.90
74488;DHT22;63019;51.080;13.642;2022-11-02T05:22:14;7.80;96.00
74488;DHT22;63019;51.080;13.642;2022-11-02T05:23:17;7.80;96.00
74488;DHT22;63019;51.080;13.642;2022-11-02T05:24:19;7.70;96.30
74488;DHT22;63019;51.080;13.642;2022-11-02T05:25:20;7.80;96.10
74488;DHT22;63019;51.080;13.642;2022-11-02T05:26:22;7.80;96.10
74488;DHT22;63019;51.080;13.642;2022-11-02T05:27:24;7.70;96.00
74488;DHT22;63019;51.080;13.642;2022-11-02T05:28:27;7.70;96.10
74488;DHT22;63019;51.080;13.642;2022-11-02T05:29:29;7.70;96.10
74488;DHT22;63019;51.080;13.642;2022-11-02T05:30:31;7.70;96.20
74488;DHT22;63019;51.080;13.642;2022-11-02T05:31:33;7.70;96.10
74488;DHT22;63019;51.080;13.642;2022-11-02T05:32:35;7.70;96.20
74488;DHT22;63019;51.080;13.642;2022-11-02T05:33:36;7.70;96.20
74488;DHT22;63019;51.080;13.642;2022-11-02T05:34:38;7.70;96.20
74488;DHT22;63019;51.080;13.642;2022-11-02T05:35:40;7.70;96.10
74488;DHT22;63019;51.080;13.642;2022-11-02T05:36:42;7.70;96.20
74488;DHT22;63019;51.080;13.642;2022-11-02T05:37:44;7.70;96.10
74488;DHT22;63019;51.080;13.642;2022-11-02T05:38:45;7.70;96.10
74488;DHT22;63019;51.080;13.642;2022-11-02T05:39:47;7.70;96.10
74488;DHT22;63019;51.080;13.642;2022-11-02T05:40:56;7.70;96.10
74488;DHT22;63019;51.080;13.642;2022-11-02T05:41:58;7.70;96.00
74488;DHT22;63019;51.080;13.642;2022-11-02T05:43:00;7.70;96.00
74488;DHT22;63019;51.080;13.642;2022-11-02T05:44:02;7.80;96.00
74488;DHT22;63019;51.080;13.642;2022-11-02T05:45:04;7.80;96.00
74488;DHT22;63019;51.080;13.642;2022-11-02T05:46:05;7.70;96.00
74488;DHT22;63019;51.080;13.642;2022-11-02T05:47:07;7.70;96.10
74488;DHT22;63019;51.080;13.642;2022-11-02T05:48:09;7.70;96.10
74488;DHT22;63019;51.080;13.642;2022-11-02T05:49:11;7.70;96.10
74488;DHT22;63019;51.080;13.642;2022-11-02T05:50:12;7.70;96.00
74488;DHT22;63019;51.080;13.642;2022-11-02T05:51:14;7.70;95.90
74488;DHT22;63019;51.080;13.642;2022-11-02T05:52:16;7.60;95.70
74488;DHT22;63019;51.080;13.642;2022-11-02T05:53:17;7.60;95.80
74488;DHT22;63019;51.080;13.642;2022-11-02T05:54:19;7.50;95.90
74488;DHT22;63019;51.080;13.642;2022-11-02T05:55:21;7.50;96.00
74488;DHT22;63019;51.080;13.642;2022-11-02T05:56:23;7.40;96.10
74488;DHT22;63019;51.080;13.642;2022-11-02T05:57:25;7.40;96.10
74488;DHT22;63019;51.080;13.642;2022-11-02T05:58:28;7.30;96.30
74488;DHT22;63019;51.080;13.642;2022-11-02T05:59:30;7.30;96.30
74488;DHT22;63019;51.080;13.642;2022-11-02T06:00:33;7.30;96.50
74488;DHT22;63019;51.080;13.642;2022-11-02T06:01:35;7.20;96.50
74488;DHT22;63019;51.080;13.642;2022-11-02T06:02:36;7.20;96.50
74488;DHT22;63019;51.080;13.642;2022-11-02T06:03:38;7.20;96.40
74488;DHT22;63019;51.080;13.642;2022-11-02T06:04:40;7.20;96.50
74488;DHT22;63019;51.080;13.642;2022-11-02T06:05:42;7.20;96.50
74488;DHT22;63019;51.080;13.642;2022-11-02T06:06:44;7.20;96.50
74488;DHT22;63019;51.080;13.642;2022-11-02T06:07:46;7.20;96.50
74488;DHT22;63019;51.080;13.642;2022-11-02T06:08:48;7.20;96.40
74488;DHT22;63019;51.080;13.642;2022-11-02T06:09:50;7.20;96.50
74488;DHT22;63019;51.080;13.642;2022-11-02T06:10:52;7.20;96.60
74488;DHT22;63019;51.080;13.642;2022-11-02T06:11:55;7.10;96.60
74488;DHT22;63019;51.080;13.642;2022-11-02T06:12:58;7.10;96.50
74488;DHT22;63019;51.080;13.642;2022-11-02T06:14:00;7.10;96.70
74488;DHT22;63019;51.080;13.642;2022-11-02T06:15:04;7.10;96.70
74488;DHT22;63019;51.080;13.642;2022-11-02T06:16:08;7.10;96.70
74488;DHT22;63019;51.080;13.642;2022-11-02T06:17:11;7.20;96.70
74488;DHT22;63019;51.080;13.642;2022-11-02T06:18:12;7.20;96.70
74488;DHT22;63019;51.080;13.642;2022-11-02T06:19:14;7.20;96.70
74488;DHT22;63019;51.080;13.642;2022-11-02T06:20:21;7.20;96.60
74488;DHT22;63019;51.080;13.642;2022-11-02T06:21:23;7.20;96.60
74488;DHT22;63019;51.080;13.642;2022-11-02T06:22:24;7.20;96.70
74488;DHT22;63019;51.080;13.642;2022-11-02T06:23:27;7.20;96.80
74488;DHT22;63019;51.080;13.642;2022-11-02T06:24:29;7.20;96.80
74488;DHT22;63019;51.080;13.642;2022-11-02T06:25:30;7.20;96.70
74488;DHT22;63019;51.080;13.642;2022-11-02T06:26:32;7.20;96.80
74488;DHT22;63019;51.080;13.642;2022-11-02T06:27:34;7.30;96.80
74488;DHT22;63019;51.080;13.642;2022-11-02T06:28:36;7.30;96.80
74488;DHT22;63019;51.080;13.642;2022-11-02T06:29:38;7.30;96.70
74488;DHT22;63019;51.080;13.642;2022-11-02T06:30:41;7.30;96.80
74488;DHT22;63019;51.080;13.642;2022-11-02T06:31:42;7.40;96.80
74488;DHT22;63019;51.080;13.642;2022-11-02T06:32:49;7.40;96.80
74488;DHT22;63019;51.080;13.642;2022-11-02T06:33:51;7.40;96.80
74488;DHT22;63019;51.080;13.642;2022-11-02T06:34:53;7.40;96.70
74488;DHT22;63019;51.080;13.642;2022-11-02T06:35:55;7.50;96.70
74488;DHT22;63019;51.080;13.642;2022-11-02T06:36:56;7.50;96.70
74488;DHT22;63019;51.080;13.642;2022-11-02T06:37:58;7.60;96.80
74488;DHT22;63019;51.080;13.642;2022-11-02T06:39:00;7.60;96.70
74488;DHT22;63019;51.080;13.642;2022-11-02T06:40:01;7.70;96.50
74488;DHT22;63019;51.080;13.642;2022-11-02T06:41:03;7.70;96.40
74488;DHT22;63019;51.080;13.642;2022-11-02T06:42:07;7.70;96.40
74488;DHT22;63019;51.080;13.642;2022-11-02T06:43:09;7.70;96.40
74488;DHT22;63019;51.080;13.642;2022-11-02T06:44:18;7.80;96.40
74488;DHT22;63019;51.080;13.642;2022-11-02T06:45:19;7.80;96.30
74488;DHT22;63019;51.080;13.642;2022-11-02T06:46:21;7.80;96.30
74488;DHT22;63019;51.080;13.642;2022-11-02T06:47:23;7.80;96.20
74488;DHT22;63019;51.080;13.642;2022-11-02T06:48:26;7.90;96.20
74488;DHT22;63019;51.080;13.642;2022-11-02T06:49:35;7.90;96.20
74488;DHT22;63019;51.080;13.642;2022-11-02T06:50:37;7.90;96.20
74488;DHT22;63019;51.080;13.642;2022-11-02T06:51:38;7.90;96.10
74488;DHT22;63019;51.080;13.642;2022-11-02T06:52:44;7.90;96.50
74488;DHT22;63019;51.080;13.642;2022-11-02T06:53:46;8.00;96.20
74488;DHT22;63019;51.080;13.642;2022-11-02T06:54:48;8.00;96.20
74488;DHT22;63019;51.080;13.642;2022-11-02T06:55:56;8.00;96.20
74488;DHT22;63019;51.080;13.642;2022-11-02T06:56:58;7.90;96.00
74488;DHT22;63019;51.080;13.642;2022-11-02T06:58:00;7.90;96.10
74488;DHT22;63019;51.080;13.642;2022-11-02T06:59:01;7.80;96.30
74488;DHT22;63019;51.080;13.642;2022-11-02T07:00:08;7.80;96.40
74488;DHT22;63019;51.080;13.642;2022-11-02T07:01:11;7.80;96.50
74488;DHT22;63019;51.080;13.642;2022-11-02T07:02:14;7.80;96.60
74488;DHT22;63019;51.080;13.642;2022-11-02T07:03:16;7.80;96.70
74488;DHT22;63019;51.080;13.642;2022-11-02T07:04:18;7.90;96.70
74488;DHT22;63019;51.080;13.642;2022-11-02T07:05:19;7.90;96.50
74488;DHT22;63019;51.080;13.642;2022-11-02T07:06:21;8.00;96.50
74488;DHT22;63019;51.080;13.642;2022-11-02T07:07:23;8.10;96.30
74488;DHT22;63019;51.080;13.642;2022-11-02T07:08:25;8.10;96.10
74488;DHT22;63019;51.080;13.642;2022-11-02T07:09:28;8.20;96.10
74488;DHT22;63019;51.080;13.642;2022-11-02T07:10:30;8.30;96.00
74488;DHT22;63019;51.080;13.642;2022-11-02T07:11:31;8.30;96.30
74488;DHT22;63019;51.080;13.642;2022-11-02T07:12:33;8.30;95.90
74488;DHT22;63019;51.080;13.642;2022-11-02T07:13:35;8.40;95.90
74488;DHT22;63019;51.080;13.642;2022-11-02T07:14:37;8.40;95.90
74488;DHT22;63019;51.080;13.642;2022-11-02T07:15:38;8.40;95.80
74488;DHT22;63019;51.080;13.642;2022-11-02T07:16:40;8.40;95.70
74488;DHT22;63019;51.080;13.642;2022-11-02T07:17:42;8.50;95.70